createdAt,value
2018-12-25T00:00:56.846Z,3.55
2018-12-25T00:03:27.270Z,3.57
2018-12-25T00:05:56.805Z,3.61
2018-12-25T00:08:26.339Z,3.52
2018-12-25T00:10:55.783Z,3.50
2018-12-25T00:13:25.244Z,3.54
2018-12-25T00:15:54.751Z,3.59
2018-12-25T00:18:24.286Z,3.53
2018-12-25T00:20:53.755Z,3.50
2018-12-25T00:23:23.266Z,3.45
2018-12-25T00:25:52.755Z,3.40
2018-12-25T00:28:22.284Z,3.22
2018-12-25T00:30:51.875Z,3.23
2018-12-25T00:33:21.371Z,3.23
2018-12-25T00:35:50.873Z,3.21
2018-12-25T00:38:20.370Z,3.21
2018-12-25T00:40:49.968Z,3.18
2018-12-25T00:43:19.454Z,3.25
2018-12-25T00:45:48.902Z,3.32
2018-12-25T00:48:18.401Z,3.28
2018-12-25T00:50:47.886Z,3.20
2018-12-25T00:53:17.400Z,3.06
2018-12-25T00:55:46.919Z,3.07
2018-12-25T00:58:16.421Z,3.17
2018-12-25T01:00:45.953Z,3.16
2018-12-25T01:03:15.514Z,3.18
2018-12-25T01:05:45.075Z,3.20
2018-12-25T01:08:14.610Z,3.12
2018-12-25T01:10:44.105Z,3.06
2018-12-25T01:13:13.615Z,3.00
2018-12-25T01:15:43.069Z,2.96
2018-12-25T01:18:12.660Z,2.92
2018-12-25T01:20:42.121Z,2.86
2018-12-25T01:23:11.637Z,2.78
2018-12-25T01:25:41.143Z,2.75
2018-12-25T01:28:12.514Z,2.82
2018-12-25T01:30:42.016Z,2.79
2018-12-25T01:33:11.520Z,2.76
2018-12-25T01:35:41.010Z,2.70
2018-12-25T01:38:10.894Z,2.67
2018-12-25T01:40:40.411Z,2.68
2018-12-25T01:43:09.965Z,2.61
2018-12-25T01:45:39.410Z,2.50
2018-12-25T01:48:08.864Z,2.56
2018-12-25T01:50:38.647Z,2.49
2018-12-25T01:53:08.146Z,2.43
2018-12-25T01:55:37.670Z,2.51
2018-12-25T01:58:07.186Z,2.52
2018-12-25T02:00:36.682Z,2.33
2018-12-25T02:03:06.227Z,2.27
2018-12-25T02:05:35.730Z,2.21
2018-12-25T02:08:05.177Z,2.29
2018-12-25T02:10:34.687Z,2.22
2018-12-25T02:13:04.167Z,2.28
2018-12-25T02:15:33.619Z,2.22
2018-12-25T02:18:03.148Z,2.14
2018-12-25T02:20:32.639Z,2.11
2018-12-25T02:23:02.136Z,2.05
2018-12-25T02:25:31.665Z,2.06
2018-12-25T02:28:01.208Z,2.01
2018-12-25T02:30:30.750Z,2.05
2018-12-25T02:33:00.309Z,2.06
2018-12-25T02:35:29.860Z,2.01
2018-12-25T02:37:59.327Z,2.00
2018-12-25T02:40:28.819Z,1.96
2018-12-25T02:42:58.319Z,1.96
2018-12-25T02:45:27.797Z,1.96
2018-12-25T02:47:57.239Z,1.86
2018-12-25T02:50:26.689Z,1.85
2018-12-25T02:52:56.155Z,1.82
2018-12-25T02:55:25.660Z,1.77
2018-12-25T02:57:55.143Z,1.80
2018-12-25T03:00:24.670Z,1.74
2018-12-25T03:02:54.159Z,1.69
2018-12-25T03:05:23.693Z,1.62
2018-12-25T03:07:53.230Z,1.62
2018-12-25T03:10:22.681Z,1.60
2018-12-25T03:12:52.187Z,1.57
2018-12-25T03:15:21.663Z,1.56
2018-12-25T03:17:51.160Z,1.62
2018-12-25T03:20:20.610Z,1.55
2018-12-25T03:22:50.067Z,1.55
2018-12-25T03:25:19.537Z,1.59
2018-12-25T03:27:49.073Z,1.49
2018-12-25T03:30:18.640Z,1.45
2018-12-25T03:32:48.193Z,1.35
2018-12-25T03:35:17.731Z,1.21
2018-12-25T03:37:47.237Z,1.22
2018-12-25T03:40:16.659Z,1.16
2018-12-25T03:42:46.133Z,1.18
2018-12-25T03:45:15.656Z,1.16
2018-12-25T03:47:45.121Z,1.14
2018-12-25T03:50:14.683Z,1.16
2018-12-25T03:52:44.167Z,1.10
2018-12-25T03:55:13.634Z,1.02
2018-12-25T03:57:43.122Z,0.99
2018-12-25T04:00:12.598Z,1.03
2018-12-25T04:02:42.115Z,1.06
2018-12-25T04:05:11.548Z,1.06
2018-12-25T04:07:41.032Z,1.07
2018-12-25T04:10:10.497Z,1.06
2018-12-25T04:12:39.976Z,1.04
2018-12-25T04:15:09.446Z,0.94
2018-12-25T04:17:38.921Z,0.94
2018-12-25T04:20:08.966Z,0.93
2018-12-25T04:22:38.444Z,0.94
2018-12-25T04:25:07.932Z,0.99
2018-12-25T04:27:37.432Z,0.99
2018-12-25T04:30:07.315Z,1.01
2018-12-25T04:32:36.772Z,1.02
2018-12-25T04:35:06.273Z,1.02
2018-12-25T04:37:35.757Z,1.02
2018-12-25T04:40:05.459Z,1.02
2018-12-25T04:42:35.818Z,1.00
2018-12-25T04:45:05.541Z,0.98
2018-12-25T04:47:35.127Z,0.99
2018-12-25T04:50:04.970Z,1.00
2018-12-25T04:52:34.509Z,0.99
2018-12-25T04:55:04.035Z,1.03
2018-12-25T04:57:33.541Z,1.12
2018-12-25T05:00:06.475Z,1.04
2018-12-25T05:02:36.033Z,1.02
2018-12-25T05:05:05.609Z,0.98
2018-12-25T05:07:35.049Z,0.98
2018-12-25T05:10:04.535Z,0.96
2018-12-25T05:12:34.125Z,0.91
2018-12-25T05:15:03.542Z,0.92
2018-12-25T05:17:32.996Z,0.90
2018-12-25T05:20:02.446Z,0.86
2018-12-25T05:22:32.019Z,0.91
2018-12-25T05:25:01.484Z,0.86
2018-12-25T05:27:31.036Z,0.90
2018-12-25T05:30:00.507Z,0.91
2018-12-25T05:32:30.064Z,0.99
2018-12-25T05:34:59.533Z,1.00
2018-12-25T05:37:29.029Z,0.91
2018-12-25T05:39:58.561Z,0.80
2018-12-25T05:42:28.150Z,0.83
2018-12-25T05:44:57.723Z,0.80
2018-12-25T05:47:27.270Z,0.79
2018-12-25T05:49:56.771Z,0.84
2018-12-25T05:52:26.301Z,0.83
2018-12-25T05:54:55.790Z,0.84
2018-12-25T05:57:25.296Z,0.86
2018-12-25T05:59:54.839Z,0.91
2018-12-25T06:02:24.386Z,0.90
2018-12-25T06:04:53.838Z,0.84
2018-12-25T06:07:23.318Z,0.91
2018-12-25T06:09:52.835Z,1.02
2018-12-25T06:12:22.407Z,1.05
2018-12-25T06:14:51.937Z,1.00
2018-12-25T06:17:21.369Z,1.00
2018-12-25T06:19:50.877Z,1.00
2018-12-25T06:22:20.335Z,1.02
2018-12-25T06:24:49.905Z,0.92
2018-12-25T06:27:19.428Z,0.88
2018-12-25T06:29:55.936Z,0.89
2018-12-25T06:32:25.459Z,0.92
2018-12-25T06:34:54.988Z,0.95
2018-12-25T06:37:24.465Z,0.91
2018-12-25T06:39:53.944Z,0.92
2018-12-25T06:42:23.446Z,1.00
2018-12-25T06:44:52.913Z,1.05
2018-12-25T06:47:22.454Z,1.04
2018-12-25T06:49:51.931Z,1.10
2018-12-25T06:52:21.410Z,1.04
2018-12-25T06:54:50.993Z,1.07
2018-12-25T06:57:20.651Z,1.03
2018-12-25T06:59:50.143Z,0.96
2018-12-25T07:02:19.612Z,0.99
2018-12-25T07:04:49.204Z,0.97
2018-12-25T07:07:18.734Z,1.00
2018-12-25T07:09:48.198Z,1.05
2018-12-25T07:12:17.688Z,1.00
2018-12-25T07:14:47.221Z,0.96
2018-12-25T07:17:16.767Z,0.92
2018-12-25T07:19:46.284Z,0.86
2018-12-25T07:22:15.815Z,0.90
2018-12-25T07:24:45.303Z,0.98
2018-12-25T07:27:15.172Z,0.96
2018-12-25T07:29:44.657Z,0.86
2018-12-25T07:32:14.105Z,0.87
2018-12-25T07:34:43.637Z,0.88
2018-12-25T07:37:13.263Z,0.89
2018-12-25T07:39:42.735Z,0.80
2018-12-25T07:42:12.282Z,0.80
2018-12-25T07:44:41.823Z,0.81
2018-12-25T07:47:11.389Z,0.83
2018-12-25T07:49:40.873Z,0.89
2018-12-25T07:52:10.348Z,0.99
2018-12-25T07:54:40.009Z,0.94
2018-12-25T07:57:10.632Z,1.02
2018-12-25T07:59:40.144Z,1.01
2018-12-25T08:02:09.656Z,0.91
2018-12-25T08:04:39.143Z,0.81
2018-12-25T08:07:08.619Z,0.93
2018-12-25T08:09:38.189Z,1.07
2018-12-25T08:12:07.746Z,1.09
2018-12-25T08:14:37.263Z,0.90
2018-12-25T08:17:06.757Z,0.96
2018-12-25T08:19:36.704Z,1.00
2018-12-25T08:22:06.291Z,0.93
2018-12-25T08:24:35.822Z,0.93
2018-12-25T08:27:05.336Z,0.92
2018-12-25T08:29:34.838Z,1.02
2018-12-25T08:32:04.364Z,1.03
2018-12-25T08:34:33.900Z,1.05
2018-12-25T08:37:03.354Z,0.93
2018-12-25T08:39:32.896Z,0.92
2018-12-25T08:42:02.376Z,1.00
2018-12-25T08:44:31.874Z,0.97
2018-12-25T08:47:02.557Z,0.94
2018-12-25T08:49:32.451Z,0.89
2018-12-25T08:52:02.080Z,0.91
2018-12-25T08:54:31.579Z,0.90
2018-12-25T08:57:01.108Z,0.92
2018-12-25T08:59:30.924Z,1.00
2018-12-25T09:02:00.508Z,1.20
2018-12-25T09:04:30.077Z,1.20
2018-12-25T09:06:59.641Z,1.17
2018-12-25T09:09:29.164Z,1.24
2018-12-25T09:11:58.748Z,1.33
2018-12-25T09:14:28.275Z,1.29
2018-12-25T09:16:57.789Z,1.35
2018-12-25T09:19:27.252Z,1.35
2018-12-25T09:21:56.750Z,1.27
2018-12-25T09:24:26.236Z,1.32
2018-12-25T09:26:55.774Z,1.29
2018-12-25T09:29:25.294Z,1.30
2018-12-25T09:31:54.840Z,1.11
2018-12-25T09:34:24.453Z,1.00
2018-12-25T09:36:53.943Z,0.77
2018-12-25T09:39:23.410Z,0.76
2018-12-25T09:41:52.983Z,0.74
2018-12-25T09:44:22.488Z,0.88
2018-12-25T09:46:52.032Z,0.91
2018-12-25T09:49:21.535Z,1.03
2018-12-25T09:51:54.627Z,1.27
2018-12-25T09:54:22.187Z,1.37
2018-12-25T09:56:51.649Z,1.48
2018-12-25T09:59:21.182Z,1.50
2018-12-25T10:01:50.767Z,1.47
2018-12-25T10:04:20.248Z,1.62
2018-12-25T10:06:49.753Z,1.59
2018-12-25T10:09:19.275Z,1.68
2018-12-25T10:11:48.737Z,1.73
2018-12-25T10:14:18.270Z,1.62
2018-12-25T10:16:49.789Z,1.57
2018-12-25T10:19:18.943Z,1.62
2018-12-25T10:21:48.399Z,1.76
2018-12-25T10:24:17.931Z,1.69
2018-12-25T10:26:47.399Z,1.62
2018-12-25T10:29:16.874Z,1.56
2018-12-25T10:31:46.500Z,1.65
2018-12-25T10:34:16.354Z,1.62
2018-12-25T10:36:45.908Z,1.47
2018-12-25T10:39:15.443Z,1.55
2018-12-25T10:41:44.979Z,1.55
2018-12-25T10:44:14.484Z,1.44
2018-12-25T10:46:43.955Z,1.38
2018-12-25T10:49:13.473Z,1.31
2018-12-25T10:51:42.991Z,1.41
2018-12-25T10:54:12.580Z,1.32
2018-12-25T10:56:42.074Z,1.49
2018-12-25T10:59:12.061Z,1.50
2018-12-25T11:01:41.699Z,1.58
2018-12-25T11:04:11.189Z,1.65
2018-12-25T11:06:40.715Z,1.54
2018-12-25T11:09:10.278Z,1.39
2018-12-25T11:11:39.833Z,1.13
2018-12-25T11:14:09.370Z,1.19
2018-12-25T11:16:38.885Z,1.16
2018-12-25T11:19:08.385Z,1.08
2018-12-25T11:21:37.895Z,1.08
2018-12-25T11:24:07.383Z,1.02
2018-12-25T11:26:36.839Z,1.06
2018-12-25T11:29:06.393Z,1.21
2018-12-25T11:31:35.871Z,1.13
2018-12-25T11:34:05.399Z,1.25
2018-12-25T11:36:34.929Z,1.38
2018-12-25T11:39:05.794Z,1.47
2018-12-25T11:41:35.271Z,1.46
2018-12-25T11:44:04.851Z,1.32
2018-12-25T11:46:34.332Z,1.29
2018-12-25T11:49:03.948Z,1.26
2018-12-25T11:51:33.452Z,1.29
2018-12-25T11:54:03.016Z,1.18
2018-12-25T11:56:32.564Z,0.99
2018-12-25T11:59:02.139Z,0.85
2018-12-25T12:01:31.739Z,0.83
2018-12-25T12:04:01.286Z,0.78
2018-12-25T12:06:30.830Z,0.85
2018-12-25T12:09:00.356Z,0.85
2018-12-25T12:11:29.961Z,0.80
2018-12-25T12:13:59.541Z,0.83
2018-12-25T12:16:29.063Z,0.80
2018-12-25T12:18:58.925Z,0.69
2018-12-25T12:21:28.386Z,0.80
2018-12-25T12:23:58.065Z,0.72
2018-12-25T12:26:27.633Z,0.59
2018-12-25T12:28:57.194Z,0.49
2018-12-25T12:31:26.730Z,0.53
2018-12-25T12:33:56.221Z,0.59
2018-12-25T12:36:25.825Z,0.57
2018-12-25T12:38:55.415Z,0.52
2018-12-25T12:41:24.901Z,0.51
2018-12-25T12:43:54.458Z,0.49
2018-12-25T12:46:24.079Z,0.43
2018-12-25T12:48:53.627Z,0.40
2018-12-25T12:51:27.221Z,0.43
2018-12-25T12:53:56.830Z,0.52
2018-12-25T12:56:26.394Z,0.53
2018-12-25T12:58:55.965Z,0.56
2018-12-25T13:01:25.580Z,0.59
2018-12-25T13:03:56.395Z,0.42
2018-12-25T13:06:25.948Z,0.48
2018-12-25T13:08:55.551Z,0.56
2018-12-25T13:11:25.153Z,0.57
2018-12-25T13:13:54.706Z,0.60
2018-12-25T13:16:24.181Z,0.59
2018-12-25T13:18:54.143Z,0.54
2018-12-25T13:21:23.626Z,0.55
2018-12-25T13:23:53.309Z,0.43
2018-12-25T13:26:22.915Z,0.31
2018-12-25T13:28:52.579Z,0.33
2018-12-25T13:31:22.197Z,0.33
2018-12-25T13:33:51.785Z,0.34
2018-12-25T13:36:21.279Z,0.40
2018-12-25T13:38:50.862Z,0.40
2018-12-25T13:41:20.661Z,0.46
2018-12-25T13:43:50.127Z,0.46
2018-12-25T13:46:19.647Z,0.48
2018-12-25T13:48:49.159Z,0.54
2018-12-25T13:51:18.668Z,0.49
2018-12-25T13:53:48.225Z,0.36
2018-12-25T13:56:17.775Z,0.36
2018-12-25T13:58:47.335Z,0.17
2018-12-25T14:01:16.801Z,0.09
2018-12-25T14:03:46.365Z,0.07
2018-12-25T14:06:16.946Z,0.08
2018-12-25T14:08:46.512Z,0.06
2018-12-25T14:11:16.186Z,0.04
2018-12-25T14:13:45.928Z,0.05
2018-12-25T14:16:15.520Z,-0.01
2018-12-25T14:18:45.214Z,0.04
2018-12-25T14:21:14.763Z,0.08
2018-12-25T14:23:45.728Z,0.04
2018-12-25T14:26:15.200Z,0.04
2018-12-25T14:28:47.811Z,0.05
2018-12-25T14:31:17.431Z,0.04
2018-12-25T14:33:46.993Z,0.00
2018-12-25T14:36:16.632Z,-0.03
2018-12-25T14:38:46.197Z,-0.05
2018-12-25T14:41:15.809Z,-0.11
2018-12-25T14:43:52.151Z,-0.06
2018-12-25T14:46:21.907Z,-0.12
2018-12-25T14:48:51.453Z,-0.14
2018-12-25T14:51:21.546Z,-0.16
2018-12-25T14:53:51.038Z,-0.18
2018-12-25T14:56:20.772Z,-0.28
2018-12-25T14:58:50.424Z,-0.27
2018-12-25T15:01:19.999Z,-0.28
2018-12-25T15:03:49.503Z,-0.25
2018-12-25T15:06:19.036Z,-0.21
2018-12-25T15:08:48.631Z,-0.19
2018-12-25T15:11:18.182Z,-0.24
2018-12-25T15:13:47.672Z,-0.22
2018-12-25T15:16:17.147Z,-0.19
2018-12-25T15:18:46.684Z,-0.20
2018-12-25T15:21:16.326Z,-0.16
2018-12-25T15:23:45.866Z,-0.15
2018-12-25T15:26:15.423Z,-0.26
2018-12-25T15:28:46.018Z,-0.29
2018-12-25T15:31:15.622Z,-0.26
2018-12-25T15:33:47.997Z,-0.28
2018-12-25T15:36:21.733Z,-0.26
2018-12-25T15:38:51.290Z,-0.29
2018-12-25T15:41:21.468Z,-0.31
2018-12-25T15:43:50.998Z,-0.32
2018-12-25T15:46:20.510Z,-0.33
2018-12-25T15:48:50.516Z,-0.41
2018-12-25T15:51:22.653Z,-0.54
2018-12-25T15:53:52.223Z,-0.64
2018-12-25T15:56:24.660Z,-0.64
2018-12-25T15:58:56.448Z,-0.69
2018-12-25T16:01:25.967Z,-0.76
2018-12-25T16:03:56.451Z,-0.72
2018-12-25T16:06:27.873Z,-0.60
2018-12-25T16:08:57.347Z,-0.54
2018-12-25T16:11:26.878Z,-0.63
2018-12-25T16:13:56.467Z,-0.64
2018-12-25T16:16:26.016Z,-0.63
2018-12-25T16:18:57.870Z,-0.62
2018-12-25T16:21:27.431Z,-0.68
2018-12-25T16:23:57.110Z,-0.63
2018-12-25T16:26:26.710Z,-0.61
2018-12-25T16:28:56.216Z,-0.56
2018-12-25T16:31:26.027Z,-0.54
2018-12-25T16:33:55.521Z,-0.53
2018-12-25T16:36:25.095Z,-0.46
2018-12-25T16:38:55.295Z,-0.41
2018-12-25T16:41:27.473Z,-0.46
2018-12-25T16:43:56.961Z,-0.53
2018-12-25T16:46:26.524Z,-0.47
2018-12-25T16:48:56.058Z,-0.40
2018-12-25T16:51:25.615Z,-0.47
2018-12-25T16:53:55.199Z,-0.50
2018-12-25T16:56:24.787Z,-0.54
2018-12-25T16:58:54.338Z,-0.59
2018-12-25T17:01:23.831Z,-0.62
2018-12-25T17:03:53.458Z,-0.60
2018-12-25T17:06:23.061Z,-0.58
2018-12-25T17:08:52.814Z,-0.57
2018-12-25T17:11:22.288Z,-0.59
2018-12-25T17:13:51.871Z,-0.53
2018-12-25T17:16:21.382Z,-0.51
2018-12-25T17:18:50.955Z,-0.47
2018-12-25T17:21:20.481Z,-0.51
2018-12-25T17:23:50.024Z,-0.46
2018-12-25T17:26:19.545Z,-0.41
2018-12-25T17:28:49.241Z,-0.30
2018-12-25T17:31:18.751Z,-0.31
2018-12-25T17:33:48.282Z,-0.46
2018-12-25T17:36:17.815Z,-0.46
2018-12-25T17:38:47.420Z,-0.53
2018-12-25T17:41:19.290Z,-0.53
2018-12-25T17:43:48.899Z,-0.50
2018-12-25T17:46:18.380Z,-0.64
2018-12-25T17:48:47.907Z,-0.68
2018-12-25T17:51:17.460Z,-0.67
2018-12-25T17:53:46.986Z,-0.66
2018-12-25T17:56:16.595Z,-0.68
2018-12-25T17:58:46.180Z,-0.82
2018-12-25T18:01:15.697Z,-0.76
2018-12-25T18:03:45.210Z,-0.74
2018-12-25T18:06:14.718Z,-0.73
2018-12-25T18:08:44.250Z,-0.76
2018-12-25T18:11:13.880Z,-0.65
2018-12-25T18:13:43.654Z,-0.58
2018-12-25T18:16:13.231Z,-0.76
2018-12-25T18:18:42.856Z,-0.79
2018-12-25T18:21:12.371Z,-0.77
2018-12-25T18:23:41.965Z,-0.81
2018-12-25T18:26:11.700Z,-0.80
2018-12-25T18:28:41.431Z,-0.84
2018-12-25T18:31:11.409Z,-1.01
2018-12-25T18:33:41.207Z,-0.98
2018-12-25T18:36:11.164Z,-1.00
2018-12-25T18:38:40.746Z,-1.03
2018-12-25T18:41:10.492Z,-1.01
2018-12-25T18:43:40.236Z,-0.95
2018-12-25T18:46:11.281Z,-0.92
2018-12-25T18:48:40.955Z,-0.96
2018-12-25T18:51:10.552Z,-0.97
2018-12-25T18:53:42.871Z,-0.95
2018-12-25T18:56:12.457Z,-0.91
2018-12-25T18:58:42.491Z,-0.97
2018-12-25T19:01:11.974Z,-0.88
2018-12-25T19:03:41.540Z,-0.78
2018-12-25T19:06:11.100Z,-0.77
2018-12-25T19:08:40.720Z,-0.70
2018-12-25T19:11:10.231Z,-0.81
2018-12-25T19:13:39.819Z,-0.89
2018-12-25T19:16:09.409Z,-0.89
2018-12-25T19:18:39.039Z,-0.97
2018-12-25T19:21:08.558Z,-0.97
2018-12-25T19:23:42.255Z,-0.86
2018-12-25T19:26:11.869Z,-0.83
2018-12-25T19:28:41.374Z,-0.91
2018-12-25T19:31:10.909Z,-0.94
2018-12-25T19:33:40.505Z,-0.95
2018-12-25T19:36:10.852Z,-1.05
2018-12-25T19:38:40.411Z,-1.12
2018-12-25T19:41:09.908Z,-1.12
2018-12-25T19:43:39.456Z,-1.10
2018-12-25T19:46:09.095Z,-1.10
2018-12-25T19:48:38.698Z,-1.01
2018-12-25T19:51:08.249Z,-0.98
2018-12-25T19:53:37.902Z,-1.05
2018-12-25T19:56:07.385Z,-1.14
2018-12-25T19:58:37.172Z,-1.05
2018-12-25T20:01:06.740Z,-1.00
2018-12-25T20:03:44.297Z,-1.04
2018-12-25T20:06:44.661Z,-1.05
2018-12-25T20:10:16.549Z,-1.05
2018-12-25T20:13:22.378Z,-1.04
2018-12-25T20:16:21.644Z,-1.19
2018-12-25T20:19:30.841Z,-1.14
2018-12-25T20:22:59.917Z,-1.18
2018-12-25T20:26:12.217Z,-1.13
2018-12-25T20:29:19.737Z,-1.14
2018-12-25T20:32:30.137Z,-1.15
2018-12-25T20:38:40.245Z,-1.05
2018-12-25T20:41:50.594Z,-1.09
2018-12-25T20:44:55.549Z,-1.07
2018-12-25T20:48:13.880Z,-1.01
2018-12-25T20:51:33.720Z,-1.00
2018-12-25T20:54:38.710Z,-1.04
2018-12-25T20:57:48.764Z,-1.07
2018-12-25T21:00:53.479Z,-1.15
2018-12-25T21:04:06.086Z,-1.19
2018-12-25T21:07:27.664Z,-1.19
2018-12-25T21:10:33.096Z,-1.20
2018-12-25T21:13:47.993Z,-1.24
2018-12-25T21:16:54.505Z,-1.26
2018-12-25T21:20:12.779Z,-1.16
2018-12-25T21:23:17.951Z,-1.12
2018-12-25T21:26:22.929Z,-1.19
2018-12-25T21:28:52.536Z,-1.34
2018-12-25T21:31:22.235Z,-1.30
2018-12-25T21:33:53.241Z,-1.35
2018-12-25T21:36:22.879Z,-1.32
2018-12-25T21:38:52.356Z,-1.35
2018-12-25T21:41:22.749Z,-1.36
2018-12-25T21:43:52.801Z,-1.37
2018-12-25T21:46:33.349Z,-1.37
2018-12-25T21:49:03.073Z,-1.40
2018-12-25T21:51:33.057Z,-1.42
2018-12-25T21:54:11.308Z,-1.31
2018-12-25T21:56:40.988Z,-1.25
2018-12-25T21:59:10.567Z,-1.26
2018-12-25T22:01:40.206Z,-1.23
2018-12-25T22:04:09.847Z,-1.23
2018-12-25T22:06:39.367Z,-1.20
2018-12-25T22:09:08.868Z,-1.19
2018-12-25T22:11:38.674Z,-1.12
2018-12-25T22:14:08.296Z,-1.09
2018-12-25T22:16:39.013Z,-1.02
2018-12-25T22:19:08.947Z,-0.99
2018-12-25T22:21:38.447Z,-1.01
2018-12-25T22:24:07.905Z,-0.98
2018-12-25T22:26:48.249Z,-0.98
2018-12-25T22:29:18.113Z,-0.98
2018-12-25T22:31:47.710Z,-1.00
2018-12-25T22:34:17.226Z,-1.00
2018-12-25T22:36:46.757Z,-0.89
2018-12-25T22:39:16.318Z,-0.89
2018-12-25T22:41:50.256Z,-0.88
2018-12-25T22:44:20.677Z,-0.83
2018-12-25T22:46:50.188Z,-0.81
2018-12-25T22:49:40.160Z,-0.72
2018-12-25T22:52:09.834Z,-0.64
2018-12-25T22:54:39.571Z,-0.70
2018-12-25T22:57:18.213Z,-0.67
2018-12-25T22:59:47.799Z,-0.70
2018-12-25T23:02:17.428Z,-0.80
2018-12-25T23:04:46.956Z,-0.72
2018-12-25T23:07:16.518Z,-0.74
2018-12-25T23:09:46.507Z,-0.83
2018-12-25T23:12:16.243Z,-0.85
2018-12-25T23:14:45.754Z,-0.87
2018-12-25T23:17:15.398Z,-0.89
2018-12-25T23:19:44.983Z,-0.97
2018-12-25T23:22:14.686Z,-0.90
2018-12-25T23:25:09.706Z,-0.97
2018-12-25T23:27:40.293Z,-1.03
2018-12-25T23:30:28.711Z,-1.10
2018-12-25T23:33:19.012Z,-1.10
2018-12-25T23:35:48.604Z,-1.16
2018-12-25T23:38:18.198Z,-1.25
2018-12-25T23:40:58.542Z,-1.22
2018-12-25T23:43:28.104Z,-1.20
2018-12-25T23:45:58.055Z,-1.22
2018-12-25T23:48:27.605Z,-1.22
2018-12-25T23:50:57.158Z,-1.22
2018-12-25T23:53:26.857Z,-1.18
2018-12-25T23:56:16.675Z,-1.14
2018-12-25T23:58:46.369Z,-1.16
